createdAt,value
2023-03-26T00:01:00.864Z,6.83
2023-03-26T00:03:03.098Z,6.83
2023-03-26T00:05:05.330Z,6.86
2023-03-26T00:07:06.793Z,6.85
2023-03-26T00:09:13.162Z,6.86
2023-03-26T00:11:17.178Z,6.87
2023-03-26T00:13:18.565Z,6.89
2023-03-26T00:15:19.994Z,6.93
2023-03-26T00:17:21.583Z,6.92
2023-03-26T00:19:22.968Z,6.94
2023-03-26T00:21:27.640Z,6.92
2023-03-26T00:23:30.252Z,6.93
2023-03-26T00:25:34.829Z,6.93
2023-03-26T00:27:36.366Z,6.99
2023-03-26T00:29:39.832Z,6.98
2023-03-26T00:31:46.204Z,6.99
2023-03-26T00:33:48.055Z,7.00
2023-03-26T00:35:58.611Z,6.99
2023-03-26T00:38:01.097Z,7.01
2023-03-26T00:40:06.985Z,7.03
2023-03-26T00:42:08.377Z,7.02
2023-03-26T00:44:10.472Z,7.03
2023-03-26T00:46:12.141Z,7.02
2023-03-26T00:48:14.457Z,7.02
2023-03-26T00:50:16.224Z,7.05
2023-03-26T00:52:21.026Z,7.06
2023-03-26T00:54:22.452Z,7.09
2023-03-26T00:56:24.178Z,7.12
2023-03-26T00:58:26.976Z,7.12
2023-03-26T01:00:35.454Z,7.13
2023-03-26T01:02:36.983Z,7.15
2023-03-26T01:04:38.622Z,7.17
2023-03-26T01:06:42.457Z,7.16
2023-03-26T01:08:48.592Z,7.16
2023-03-26T01:10:53.648Z,7.16
2023-03-26T01:12:55.023Z,7.13
2023-03-26T01:15:00.670Z,7.14
2023-03-26T01:17:07.884Z,7.14
2023-03-26T01:19:29.272Z,7.15
2023-03-26T01:21:30.676Z,7.15
2023-03-26T01:23:40.465Z,7.17
2023-03-26T01:25:49.378Z,7.14
2023-03-26T01:27:55.796Z,7.12
2023-03-26T01:30:17.386Z,7.13
2023-03-26T01:32:27.784Z,7.12
2023-03-26T01:34:46.996Z,7.14
2023-03-26T01:37:02.558Z,7.15
2023-03-26T01:39:30.821Z,7.13
2023-03-26T01:41:39.795Z,7.14
2023-03-26T01:43:54.144Z,7.12
2023-03-26T01:45:59.883Z,7.12
2023-03-26T01:48:02.102Z,7.14
2023-03-26T01:50:03.749Z,7.14
2023-03-26T01:52:34.516Z,7.16
2023-03-26T01:54:37.118Z,7.15
2023-03-26T01:56:50.781Z,7.18
2023-03-26T01:59:06.247Z,7.21
2023-03-26T02:01:36.591Z,7.21
2023-03-26T02:03:51.526Z,7.25
2023-03-26T02:06:22.689Z,7.22
2023-03-26T02:08:35.441Z,7.24
2023-03-26T02:10:41.449Z,7.27
2023-03-26T02:12:44.576Z,7.25
2023-03-26T02:14:46.337Z,7.25
2023-03-26T02:16:47.880Z,7.21
2023-03-26T02:18:55.517Z,7.22
2023-03-26T02:20:56.889Z,7.23
2023-03-26T02:22:58.598Z,7.22
2023-03-26T02:25:00.008Z,7.20
2023-03-26T02:27:02.166Z,7.19
2023-03-26T02:29:03.790Z,7.21
2023-03-26T02:31:06.364Z,7.22
2023-03-26T02:33:07.810Z,7.18
2023-03-26T02:35:10.102Z,7.19
2023-03-26T02:37:11.522Z,7.17
2023-03-26T02:39:14.185Z,7.13
2023-03-26T02:41:15.734Z,7.10
2023-03-26T02:43:17.182Z,7.06
2023-03-26T02:45:18.592Z,7.05
2023-03-26T02:47:20.152Z,7.04
2023-03-26T02:49:21.853Z,6.98
2023-03-26T02:51:23.310Z,6.96
2023-03-26T02:53:29.821Z,6.92
2023-03-26T02:55:31.296Z,6.87
2023-03-26T02:57:32.793Z,6.87
2023-03-26T02:59:34.188Z,6.90
2023-03-26T03:01:35.704Z,6.93
2023-03-26T03:03:37.790Z,6.93
2023-03-26T03:05:43.122Z,6.94
2023-03-26T03:07:46.334Z,6.96
2023-03-26T03:09:50.580Z,7.01
2023-03-26T03:11:52.641Z,6.98
2023-03-26T03:13:54.389Z,7.02
2023-03-26T03:15:56.346Z,7.05
2023-03-26T03:17:58.011Z,7.08
2023-03-26T03:19:59.501Z,7.13
2023-03-26T03:22:00.970Z,7.13
2023-03-26T03:24:02.421Z,7.15
2023-03-26T03:26:04.015Z,7.09
2023-03-26T03:28:05.960Z,7.05
2023-03-26T03:30:08.901Z,7.00
2023-03-26T03:32:10.277Z,6.89
2023-03-26T03:34:11.666Z,6.84
2023-03-26T03:36:19.923Z,6.81
2023-03-26T03:38:22.495Z,6.72
2023-03-26T03:40:24.094Z,6.68
2023-03-26T03:42:27.281Z,6.62
2023-03-26T03:44:28.718Z,6.60
2023-03-26T03:46:30.261Z,6.56
2023-03-26T03:48:31.681Z,6.53
2023-03-26T03:50:35.653Z,6.49
2023-03-26T03:52:37.406Z,6.41
2023-03-26T03:54:38.783Z,6.38
2023-03-26T03:56:40.259Z,6.35
2023-03-26T03:58:42.186Z,6.31
2023-03-26T04:00:44.807Z,6.25
2023-03-26T04:02:46.384Z,6.23
2023-03-26T04:04:50.235Z,6.17
2023-03-26T04:06:52.642Z,6.11
2023-03-26T04:08:53.987Z,6.08
2023-03-26T04:10:55.617Z,6.06
2023-03-26T04:12:57.065Z,6.00
2023-03-26T04:14:58.938Z,5.97
2023-03-26T04:17:00.542Z,5.93
2023-03-26T04:19:03.834Z,5.89
2023-03-26T04:21:07.298Z,5.90
2023-03-26T04:23:13.934Z,5.83
2023-03-26T04:25:15.519Z,5.85
2023-03-26T04:27:20.346Z,5.83
2023-03-26T04:29:25.602Z,5.82
2023-03-26T04:31:30.980Z,5.78
2023-03-26T04:33:34.615Z,5.77
2023-03-26T04:35:36.158Z,5.76
2023-03-26T04:37:40.703Z,5.78
2023-03-26T04:39:42.113Z,5.82
2023-03-26T04:41:43.524Z,5.81
2023-03-26T04:43:50.429Z,5.86
2023-03-26T04:45:53.293Z,5.91
2023-03-26T04:47:55.464Z,5.94
2023-03-26T04:49:56.979Z,5.97
2023-03-26T04:51:58.466Z,5.97
2023-03-26T04:54:00.857Z,5.97
2023-03-26T04:56:32.890Z,5.96
2023-03-26T04:58:35.255Z,5.96
2023-03-26T05:00:36.684Z,5.97
2023-03-26T05:02:39.827Z,5.96
2023-03-26T05:04:43.696Z,5.96
2023-03-26T05:06:45.338Z,5.98
2023-03-26T05:08:46.720Z,5.99
2023-03-26T05:10:48.126Z,6.01
2023-03-26T05:12:49.797Z,6.02
2023-03-26T05:14:51.167Z,6.04
2023-03-26T05:16:55.785Z,6.06
2023-03-26T05:18:57.419Z,6.10
2023-03-26T05:20:58.955Z,6.10
2023-03-26T05:23:00.409Z,6.13
2023-03-26T05:25:01.871Z,6.15
2023-03-26T05:27:03.285Z,6.17
2023-03-26T05:29:05.146Z,6.19
2023-03-26T05:31:08.094Z,6.21
2023-03-26T05:33:09.524Z,6.21
2023-03-26T05:35:11.606Z,6.23
2023-03-26T05:37:13.723Z,6.25
2023-03-26T05:39:15.170Z,6.27
2023-03-26T05:41:16.936Z,6.30
2023-03-26T05:43:18.308Z,6.31
2023-03-26T05:45:22.525Z,6.34
2023-03-26T05:47:23.944Z,6.35
2023-03-26T05:49:25.502Z,6.39
2023-03-26T05:51:26.930Z,6.42
2023-03-26T05:53:28.544Z,6.44
2023-03-26T05:55:33.313Z,6.48
2023-03-26T05:57:35.529Z,6.52
2023-03-26T05:59:37.001Z,6.53
2023-03-26T06:01:38.520Z,6.55
2023-03-26T06:03:40.399Z,6.59
2023-03-26T06:05:42.996Z,6.62
2023-03-26T06:07:44.358Z,6.68
2023-03-26T06:09:46.359Z,6.68
2023-03-26T06:11:47.741Z,6.73
2023-03-26T06:13:49.133Z,6.75
2023-03-26T06:15:50.804Z,6.78
2023-03-26T06:17:52.206Z,6.81
2023-03-26T06:19:53.599Z,6.85
2023-03-26T06:21:55.102Z,6.87
2023-03-26T06:23:56.592Z,6.91
2023-03-26T06:25:58.611Z,6.94
2023-03-26T06:28:00.208Z,6.97
2023-03-26T06:30:01.624Z,7.02
2023-03-26T06:32:12.701Z,7.04
2023-03-26T06:34:21.285Z,7.10
2023-03-26T06:36:22.695Z,7.15
2023-03-26T06:38:24.265Z,7.17
2023-03-26T06:40:25.920Z,7.18
2023-03-26T06:43:07.500Z,7.22
2023-03-26T06:44:48.688Z,7.25
2023-03-26T06:46:50.195Z,7.28
2023-03-26T06:48:52.053Z,7.29
2023-03-26T06:50:53.677Z,7.30
2023-03-26T06:52:56.103Z,7.29
2023-03-26T06:54:57.483Z,7.27
2023-03-26T06:56:59.847Z,7.28
2023-03-26T06:59:01.366Z,7.35
2023-03-26T07:01:02.936Z,7.36
2023-03-26T07:03:05.108Z,7.39
2023-03-26T07:05:06.810Z,7.45
2023-03-26T07:07:08.425Z,7.50
2023-03-26T07:09:09.821Z,7.55
2023-03-26T07:11:11.246Z,7.54
2023-03-26T07:13:12.703Z,7.57
2023-03-26T07:15:14.202Z,7.58
2023-03-26T07:17:15.691Z,7.58
2023-03-26T07:19:17.452Z,7.59
2023-03-26T07:21:19.863Z,7.61
2023-03-26T07:23:21.544Z,7.66
2023-03-26T07:25:23.205Z,7.72
2023-03-26T07:27:31.612Z,7.67
2023-03-26T07:29:57.610Z,7.74
2023-03-26T07:32:25.271Z,7.78
2023-03-26T07:34:56.105Z,7.80
2023-03-26T07:37:04.641Z,7.84
2023-03-26T07:39:14.894Z,7.88
2023-03-26T07:41:37.346Z,7.91
2023-03-26T07:44:04.853Z,7.96
2023-03-26T07:46:11.657Z,7.99
2023-03-26T07:48:21.894Z,8.03
2023-03-26T07:50:24.856Z,8.04
2023-03-26T07:52:27.230Z,8.08
2023-03-26T07:54:28.914Z,8.09
2023-03-26T07:56:49.217Z,8.13
2023-03-26T07:58:53.434Z,8.14
2023-03-26T08:01:03.457Z,8.16
2023-03-26T08:03:27.711Z,8.20
2023-03-26T08:05:37.178Z,8.22
2023-03-26T08:08:13.656Z,8.22
2023-03-26T08:10:43.047Z,8.21
2023-03-26T08:13:11.532Z,8.26
2023-03-26T08:15:25.679Z,8.28
2023-03-26T08:17:44.875Z,8.32
2023-03-26T08:19:57.918Z,8.31
2023-03-26T08:22:06.910Z,8.32
2023-03-26T08:24:18.168Z,8.31
2023-03-26T08:26:49.326Z,8.29
2023-03-26T08:29:27.342Z,8.23
2023-03-26T08:31:38.926Z,8.28
2023-03-26T08:33:40.758Z,8.25
2023-03-26T08:35:42.725Z,8.25
2023-03-26T08:37:45.271Z,8.28
2023-03-26T08:39:46.706Z,8.29
2023-03-26T08:42:12.787Z,8.21
2023-03-26T08:44:26.093Z,8.30
2023-03-26T08:46:34.528Z,8.38
2023-03-26T08:49:09.778Z,8.42
2023-03-26T08:51:30.915Z,8.46
2023-03-26T08:53:57.065Z,8.50
2023-03-26T08:56:16.877Z,8.51
2023-03-26T08:58:30.399Z,8.62
2023-03-26T09:00:37.826Z,8.64
2023-03-26T09:03:17.802Z,8.71
2023-03-26T09:05:37.688Z,8.77
2023-03-26T09:08:04.647Z,8.74
2023-03-26T09:10:43.648Z,8.77
2023-03-26T09:13:06.422Z,8.83
2023-03-26T09:15:28.991Z,8.81
2023-03-26T09:17:56.620Z,8.83
2023-03-26T09:20:25.616Z,8.93
2023-03-26T09:23:15.342Z,8.93
2023-03-26T09:25:53.128Z,8.97
2023-03-26T09:28:00.479Z,8.98
2023-03-26T09:30:39.388Z,8.98
2023-03-26T09:33:18.492Z,9.04
2023-03-26T09:35:38.123Z,9.09
2023-03-26T09:37:57.069Z,9.10
2023-03-26T09:40:17.363Z,9.06
2023-03-26T09:42:44.918Z,9.07
2023-03-26T09:45:13.705Z,9.11
2023-03-26T09:47:40.736Z,9.12
2023-03-26T09:49:49.142Z,9.13
2023-03-26T09:51:59.549Z,9.17
2023-03-26T09:54:40.670Z,9.07
2023-03-26T09:56:52.797Z,9.00
2023-03-26T09:59:26.081Z,8.94
2023-03-26T10:01:58.487Z,8.78
2023-03-26T10:04:15.010Z,8.86
2023-03-26T10:06:30.788Z,8.95
2023-03-26T10:08:34.930Z,8.92
2023-03-26T10:10:58.981Z,8.78
2023-03-26T10:13:14.919Z,8.84
2023-03-26T10:15:32.460Z,8.88
2023-03-26T10:17:50.864Z,8.91
2023-03-26T10:20:09.623Z,8.88
2023-03-26T10:22:48.656Z,8.87
2023-03-26T10:25:08.989Z,8.94
2023-03-26T10:27:48.120Z,9.04
2023-03-26T10:30:04.708Z,9.03
2023-03-26T10:32:46.628Z,9.03
2023-03-26T10:34:57.811Z,9.13
2023-03-26T10:37:19.399Z,9.13
2023-03-26T10:39:51.235Z,9.07
2023-03-26T10:42:15.388Z,9.15
2023-03-26T10:44:22.838Z,9.14
2023-03-26T10:46:58.549Z,9.18
2023-03-26T10:49:37.620Z,9.17
2023-03-26T10:51:53.339Z,9.17
2023-03-26T10:54:11.178Z,9.20
2023-03-26T10:56:38.877Z,9.26
2023-03-26T10:58:48.462Z,9.29
2023-03-26T11:01:06.378Z,9.19
2023-03-26T11:03:13.371Z,9.21
2023-03-26T11:05:26.468Z,9.18
2023-03-26T11:07:41.861Z,9.20
2023-03-26T11:10:16.631Z,9.21
2023-03-26T11:12:39.784Z,9.21
2023-03-26T11:14:56.605Z,9.18
2023-03-26T11:17:40.842Z,9.18
2023-03-26T11:19:51.520Z,9.05
2023-03-26T11:22:08.882Z,8.98
2023-03-26T11:24:13.406Z,8.88
2023-03-26T11:26:34.563Z,8.76
2023-03-26T11:29:31.896Z,8.61
2023-03-26T11:31:38.974Z,8.50
2023-03-26T11:33:45.964Z,8.45
2023-03-26T11:35:51.666Z,8.42
2023-03-26T11:37:59.227Z,8.40
2023-03-26T11:40:06.388Z,8.42
2023-03-26T11:42:14.012Z,8.35
2023-03-26T11:44:28.186Z,8.42
2023-03-26T11:46:33.195Z,8.28
2023-03-26T11:48:46.149Z,8.42
2023-03-26T11:50:51.769Z,8.45
2023-03-26T11:52:58.980Z,8.56
2023-03-26T11:55:00.404Z,8.72
2023-03-26T11:57:08.316Z,8.75
2023-03-26T11:59:23.649Z,8.83
2023-03-26T12:01:31.760Z,9.02
2023-03-26T12:03:33.756Z,9.04
2023-03-26T12:05:48.508Z,9.17
2023-03-26T12:07:53.785Z,9.20
2023-03-26T12:10:18.179Z,9.31
2023-03-26T12:12:24.709Z,9.47
2023-03-26T12:14:28.343Z,9.50
2023-03-26T12:16:30.483Z,9.61
2023-03-26T12:18:32.379Z,9.73
2023-03-26T12:20:36.632Z,9.69
2023-03-26T12:22:43.372Z,9.77
2023-03-26T12:24:45.870Z,9.85
2023-03-26T12:26:48.934Z,9.92
2023-03-26T12:28:51.131Z,9.83
2023-03-26T12:31:00.766Z,9.88
2023-03-26T12:33:05.818Z,9.94
2023-03-26T12:35:14.113Z,10.06
2023-03-26T12:37:35.489Z,10.17
2023-03-26T12:40:09.489Z,10.14
2023-03-26T12:43:40.319Z,10.23
2023-03-26T12:44:59.270Z,10.45
2023-03-26T12:47:57.603Z,10.33
2023-03-26T12:49:37.820Z,10.57
2023-03-26T12:51:52.364Z,10.53
2023-03-26T12:54:23.729Z,10.71
2023-03-26T12:56:49.808Z,10.86
2023-03-26T12:59:36.439Z,10.82
2023-03-26T13:01:46.549Z,10.82
2023-03-26T13:04:13.512Z,10.96
2023-03-26T13:06:48.467Z,11.06
2023-03-26T13:09:11.842Z,11.05
2023-03-26T13:11:19.370Z,11.08
2023-03-26T13:13:45.652Z,11.32
2023-03-26T13:15:56.873Z,11.31
2023-03-26T13:18:23.225Z,11.25
2023-03-26T13:20:27.503Z,10.93
2023-03-26T13:22:59.620Z,10.81
2023-03-26T13:25:07.437Z,11.09
2023-03-26T13:27:33.798Z,11.11
2023-03-26T13:29:56.964Z,10.94
2023-03-26T13:32:12.697Z,10.87
2023-03-26T13:34:19.429Z,10.99
2023-03-26T13:36:29.710Z,10.95
2023-03-26T13:38:59.083Z,11.05
2023-03-26T13:41:13.173Z,11.20
2023-03-26T13:43:28.243Z,11.37
2023-03-26T13:45:50.845Z,11.37
2023-03-26T13:47:57.110Z,11.24
2023-03-26T13:50:20.943Z,11.08
2023-03-26T13:52:33.134Z,10.59
2023-03-26T13:54:44.124Z,10.68
2023-03-26T13:57:15.009Z,10.48
2023-03-26T13:59:31.772Z,10.36
2023-03-26T14:01:41.075Z,10.33
2023-03-26T14:04:07.626Z,10.27
2023-03-26T14:06:48.888Z,10.20
2023-03-26T14:08:58.144Z,10.07
2023-03-26T14:11:22.757Z,10.06
2023-03-26T14:13:49.568Z,9.89
2023-03-26T14:15:58.926Z,9.69
2023-03-26T14:18:25.813Z,9.43
2023-03-26T14:21:02.937Z,9.56
2023-03-26T14:23:16.601Z,9.75
2023-03-26T14:25:49.053Z,9.87
2023-03-26T14:28:02.001Z,10.16
2023-03-26T14:30:41.249Z,10.30
2023-03-26T14:33:27.197Z,10.15
2023-03-26T14:35:38.704Z,9.64
2023-03-26T14:37:47.912Z,9.73
2023-03-26T14:39:55.346Z,10.04
2023-03-26T14:42:02.104Z,10.22
2023-03-26T14:44:47.997Z,10.20
2023-03-26T14:47:16.664Z,9.85
2023-03-26T14:49:43.616Z,9.94
2023-03-26T14:51:58.864Z,9.82
2023-03-26T14:54:06.833Z,9.73
2023-03-26T14:56:26.229Z,9.63
2023-03-26T14:58:55.787Z,9.88
2023-03-26T15:01:22.424Z,10.02
2023-03-26T15:04:08.534Z,9.91
2023-03-26T15:06:25.163Z,9.86
2023-03-26T15:08:34.350Z,9.79
2023-03-26T15:11:13.337Z,9.99
2023-03-26T15:13:36.553Z,9.77
2023-03-26T15:16:05.100Z,9.77
2023-03-26T15:18:27.726Z,9.65
2023-03-26T15:20:35.058Z,9.80
2023-03-26T15:23:07.514Z,9.61
2023-03-26T15:25:14.709Z,9.58
2023-03-26T15:27:42.173Z,9.24
2023-03-26T15:29:49.410Z,9.45
2023-03-26T15:32:12.459Z,9.24
2023-03-26T15:34:58.295Z,9.29
2023-03-26T15:37:38.097Z,9.29
2023-03-26T15:40:08.065Z,9.00
2023-03-26T15:42:30.891Z,8.86
2023-03-26T15:44:50.957Z,8.72
2023-03-26T15:47:40.318Z,8.70
2023-03-26T15:49:49.114Z,8.69
2023-03-26T15:52:22.030Z,8.42
2023-03-26T15:54:35.566Z,8.40
2023-03-26T15:56:55.221Z,8.49
2023-03-26T15:59:23.417Z,8.44
2023-03-26T16:01:50.134Z,8.40
2023-03-26T16:04:09.021Z,8.27
2023-03-26T16:06:35.806Z,8.36
2023-03-26T16:09:17.128Z,8.25
2023-03-26T16:11:56.020Z,8.13
2023-03-26T16:14:23.204Z,7.89
2023-03-26T16:16:50.599Z,8.08
2023-03-26T16:18:58.399Z,8.08
2023-03-26T16:21:31.503Z,8.01
2023-03-26T16:24:12.523Z,7.89
2023-03-26T16:26:22.922Z,7.88
2023-03-26T16:28:29.230Z,7.87
2023-03-26T16:30:32.900Z,7.86
2023-03-26T16:32:40.353Z,7.87
2023-03-26T16:35:20.620Z,7.69
2023-03-26T16:37:45.623Z,7.72
2023-03-26T16:39:47.255Z,7.68
2023-03-26T16:41:50.042Z,7.61
2023-03-26T16:43:56.058Z,7.70
2023-03-26T16:46:08.376Z,7.54
2023-03-26T16:48:34.458Z,7.49
2023-03-26T16:50:56.645Z,7.46
2023-03-26T16:53:13.581Z,7.52
2023-03-26T16:55:34.517Z,7.52
2023-03-26T16:58:03.452Z,7.35
2023-03-26T17:00:16.294Z,7.34
2023-03-26T17:02:32.047Z,7.30
2023-03-26T17:04:35.446Z,7.25
2023-03-26T17:07:08.829Z,7.34
2023-03-26T17:09:51.665Z,7.25
2023-03-26T17:12:11.648Z,7.25
2023-03-26T17:14:28.881Z,7.21
2023-03-26T17:16:37.970Z,7.20
2023-03-26T17:19:07.924Z,7.25
2023-03-26T17:21:13.711Z,7.24
2023-03-26T17:23:39.011Z,7.20
2023-03-26T17:26:09.036Z,7.12
2023-03-26T17:28:22.332Z,7.06
2023-03-26T17:30:41.047Z,7.07
2023-03-26T17:32:58.564Z,6.97
2023-03-26T17:35:03.520Z,7.00
2023-03-26T17:37:10.422Z,7.00
2023-03-26T17:39:38.646Z,7.01
2023-03-26T17:41:54.865Z,7.04
2023-03-26T17:43:56.850Z,6.99
2023-03-26T17:46:03.681Z,6.99
2023-03-26T17:48:16.700Z,6.96
2023-03-26T17:50:26.978Z,6.89
2023-03-26T17:52:33.242Z,6.89
2023-03-26T17:54:41.134Z,6.81
2023-03-26T17:56:43.042Z,6.81
2023-03-26T17:58:49.139Z,6.78
2023-03-26T18:00:56.772Z,6.80
2023-03-26T18:03:31.108Z,6.76
2023-03-26T18:05:34.300Z,6.74
2023-03-26T18:07:57.905Z,6.69
2023-03-26T18:10:33.082Z,6.65
2023-03-26T18:13:05.347Z,6.65
2023-03-26T18:15:32.311Z,6.59
2023-03-26T18:17:41.425Z,6.54
2023-03-26T18:19:48.955Z,6.59
2023-03-26T18:21:52.873Z,6.56
2023-03-26T18:24:00.641Z,6.44
2023-03-26T18:26:32.553Z,6.49
2023-03-26T18:28:43.593Z,6.48
2023-03-26T18:30:48.553Z,6.47
2023-03-26T18:33:05.037Z,6.36
2023-03-26T18:35:21.290Z,6.29
2023-03-26T18:37:31.717Z,6.31
2023-03-26T18:39:33.141Z,6.31
2023-03-26T18:41:41.603Z,6.25
2023-03-26T18:43:44.350Z,6.21
2023-03-26T18:45:49.836Z,6.24
2023-03-26T18:48:19.058Z,6.18
2023-03-26T18:50:27.427Z,6.19
2023-03-26T18:52:31.415Z,6.17
2023-03-26T18:54:35.984Z,6.16
2023-03-26T18:56:39.643Z,6.06
2023-03-26T18:58:41.706Z,6.11
2023-03-26T19:00:44.155Z,6.07
2023-03-26T19:02:49.649Z,6.09
2023-03-26T19:04:54.241Z,6.08
2023-03-26T19:06:56.852Z,6.02
2023-03-26T19:08:58.804Z,6.05
2023-03-26T19:11:04.754Z,5.91
2023-03-26T19:13:14.013Z,5.98
2023-03-26T19:15:19.960Z,5.95
2023-03-26T19:17:22.980Z,5.98
2023-03-26T19:19:32.781Z,5.94
2023-03-26T19:21:35.749Z,5.91
2023-03-26T19:23:41.017Z,5.96
2023-03-26T19:25:48.163Z,5.92
2023-03-26T19:27:50.654Z,5.90
2023-03-26T19:29:53.049Z,5.87
2023-03-26T19:32:05.519Z,5.89
2023-03-26T19:34:17.422Z,5.89
2023-03-26T19:36:34.478Z,5.89
2023-03-26T19:38:51.983Z,5.88
2023-03-26T19:40:58.107Z,5.79
2023-03-26T19:42:59.869Z,5.80
2023-03-26T19:45:04.162Z,5.73
2023-03-26T19:47:26.786Z,5.73
2023-03-26T19:49:47.616Z,5.74
2023-03-26T19:51:53.129Z,5.65
2023-03-26T19:53:58.449Z,5.63
2023-03-26T19:56:09.745Z,5.63
2023-03-26T19:58:11.168Z,5.62
2023-03-26T20:00:14.206Z,5.62
2023-03-26T20:02:15.827Z,5.61
2023-03-26T20:04:17.280Z,5.39
2023-03-26T20:06:30.721Z,5.43
2023-03-26T20:08:40.607Z,5.40
2023-03-26T20:10:42.913Z,5.46
2023-03-26T20:12:44.661Z,5.42
2023-03-26T20:14:46.432Z,5.42
2023-03-26T20:16:47.883Z,5.36
2023-03-26T20:18:50.710Z,5.41
2023-03-26T20:20:53.810Z,5.28
2023-03-26T20:22:55.306Z,5.28
2023-03-26T20:24:56.841Z,5.24
2023-03-26T20:26:58.219Z,5.23
2023-03-26T20:28:59.946Z,5.22
2023-03-26T20:31:01.402Z,5.05
2023-03-26T20:33:12.541Z,5.01
2023-03-26T20:35:16.233Z,4.95
2023-03-26T20:37:17.853Z,5.02
2023-03-26T20:39:19.384Z,4.86
2023-03-26T20:41:23.281Z,4.97
2023-03-26T20:43:28.686Z,4.89
2023-03-26T20:45:30.199Z,4.77
2023-03-26T20:47:31.581Z,4.75
2023-03-26T20:49:33.185Z,4.77
2023-03-26T20:51:34.591Z,4.75
2023-03-26T20:53:36.039Z,4.72
2023-03-26T20:55:37.485Z,4.65
2023-03-26T20:57:38.938Z,4.64
2023-03-26T20:59:40.343Z,4.59
2023-03-26T21:01:42.073Z,4.41
2023-03-26T21:03:46.565Z,4.32
2023-03-26T21:05:51.180Z,4.22
2023-03-26T21:07:54.859Z,4.17
2023-03-26T21:09:57.957Z,4.09
2023-03-26T21:12:05.009Z,4.05
2023-03-26T21:14:15.629Z,3.99
2023-03-26T21:16:17.551Z,3.86
2023-03-26T21:18:19.286Z,3.77
2023-03-26T21:20:22.099Z,3.74
2023-03-26T21:22:37.292Z,3.63
2023-03-26T21:24:39.048Z,3.52
2023-03-26T21:26:59.016Z,3.54
2023-03-26T21:29:00.964Z,3.46
2023-03-26T21:31:04.313Z,3.38
2023-03-26T21:33:06.406Z,3.36
2023-03-26T21:35:08.799Z,3.33
2023-03-26T21:37:10.532Z,3.29
2023-03-26T21:39:12.186Z,3.21
2023-03-26T21:41:35.837Z,3.18
2023-03-26T21:43:37.280Z,3.14
2023-03-26T21:45:39.659Z,3.07
2023-03-26T21:47:41.897Z,2.98
2023-03-26T21:49:43.605Z,2.96
2023-03-26T21:51:45.462Z,2.94
2023-03-26T21:53:47.397Z,2.88
2023-03-26T21:55:48.730Z,2.86
2023-03-26T21:58:11.162Z,2.80
2023-03-26T22:00:18.144Z,2.73
2023-03-26T22:02:38.187Z,2.67
2023-03-26T22:04:48.336Z,2.61
2023-03-26T22:07:15.674Z,2.63
2023-03-26T22:09:20.736Z,2.54
2023-03-26T22:11:27.892Z,2.56
2023-03-26T22:13:29.302Z,2.53
2023-03-26T22:15:31.071Z,2.40
2023-03-26T22:17:32.789Z,2.37
2023-03-26T22:19:34.612Z,2.35
2023-03-26T22:21:36.071Z,2.29
2023-03-26T22:23:38.614Z,2.27
2023-03-26T22:25:40.116Z,2.29
2023-03-26T22:27:44.042Z,2.27
2023-03-26T22:29:46.474Z,2.18
2023-03-26T22:31:47.853Z,2.18
2023-03-26T22:33:49.265Z,2.08
2023-03-26T22:35:52.193Z,2.08
2023-03-26T22:38:00.825Z,2.08
2023-03-26T22:40:08.642Z,2.09
2023-03-26T22:42:10.053Z,2.02
2023-03-26T22:44:19.951Z,2.01
2023-03-26T22:46:22.574Z,1.99
2023-03-26T22:48:24.441Z,1.95
2023-03-26T22:50:25.994Z,1.91
2023-03-26T22:52:28.105Z,1.86
2023-03-26T22:54:29.469Z,1.88
2023-03-26T22:56:30.857Z,1.86
2023-03-26T22:58:34.267Z,1.82
2023-03-26T23:00:36.122Z,1.76
2023-03-26T23:02:38.048Z,1.76
2023-03-26T23:04:39.473Z,1.77
2023-03-26T23:06:40.998Z,1.76
2023-03-26T23:08:42.852Z,1.76
2023-03-26T23:10:44.250Z,1.73
2023-03-26T23:12:45.757Z,1.76
2023-03-26T23:14:52.190Z,1.76
2023-03-26T23:16:53.640Z,1.75
2023-03-26T23:18:55.031Z,1.72
2023-03-26T23:20:58.497Z,1.70
2023-03-26T23:23:01.181Z,1.73
2023-03-26T23:25:03.237Z,1.71
2023-03-26T23:27:06.517Z,1.77
2023-03-26T23:29:07.954Z,1.75
2023-03-26T23:31:12.413Z,1.70
2023-03-26T23:33:14.408Z,1.68
2023-03-26T23:35:16.020Z,1.66
2023-03-26T23:37:22.781Z,1.64
2023-03-26T23:39:26.049Z,1.65
2023-03-26T23:41:27.554Z,1.62
2023-03-26T23:43:29.175Z,1.59
2023-03-26T23:45:30.786Z,1.57
2023-03-26T23:47:34.890Z,1.53
2023-03-26T23:49:37.315Z,1.50
2023-03-26T23:51:38.702Z,1.47
2023-03-26T23:53:40.193Z,1.49
2023-03-26T23:55:44.153Z,1.46
2023-03-26T23:57:46.267Z,1.38
2023-03-26T23:59:48.448Z,1.38
